createdAt,value
2023-04-03T00:01:08.925Z,7.20
2023-04-03T00:06:05.093Z,7.10
2023-04-03T00:08:33.455Z,7.00
2023-04-03T00:11:00.441Z,7.00
2023-04-03T00:13:27.509Z,7.10
2023-04-03T00:18:22.353Z,7.10
2023-04-03T00:20:49.853Z,7.00
2023-04-03T00:23:17.474Z,7.10
2023-04-03T00:25:44.737Z,7.00
2023-04-03T00:28:12.017Z,7.40
2023-04-03T00:33:07.141Z,6.90
2023-04-03T00:35:35.587Z,6.90
2023-04-03T00:38:02.680Z,7.00
2023-04-03T00:40:37.478Z,6.80
2023-04-03T00:43:20.160Z,6.90
2023-04-03T00:45:51.005Z,6.80
2023-04-03T00:48:33.042Z,6.90
2023-04-03T00:51:00.574Z,6.90
2023-04-03T00:53:35.025Z,6.90
2023-04-03T00:56:02.464Z,6.90
2023-04-03T00:58:40.368Z,6.80
2023-04-03T01:01:13.832Z,6.80
2023-04-03T01:06:08.666Z,6.90
2023-04-03T01:08:36.666Z,6.90
2023-04-03T01:11:03.847Z,6.80
2023-04-03T01:13:34.255Z,7.20
2023-04-03T01:16:06.671Z,6.70
2023-04-03T01:18:35.407Z,6.70
2023-04-03T01:21:12.066Z,6.70
2023-04-03T01:23:57.522Z,6.60
2023-04-03T01:26:26.951Z,6.60
2023-04-03T01:28:56.288Z,6.70
2023-04-03T01:31:29.445Z,6.70
2023-04-03T01:33:57.365Z,6.50
2023-04-03T01:36:31.982Z,6.00
2023-04-03T01:39:01.202Z,6.60
2023-04-03T01:41:29.566Z,6.60
2023-04-03T01:44:04.912Z,6.80
2023-04-03T01:46:32.012Z,6.60
2023-04-03T01:48:59.133Z,6.50
2023-04-03T01:51:26.097Z,7.30
2023-04-03T01:53:53.206Z,6.60
2023-04-03T01:56:21.089Z,6.50
2023-04-03T01:58:48.696Z,6.60
2023-04-03T02:01:16.197Z,6.50
2023-04-03T02:03:43.423Z,7.00
2023-04-03T02:06:12.600Z,6.50
2023-04-03T02:11:07.334Z,6.90
2023-04-03T02:13:34.296Z,6.50
2023-04-03T02:16:09.315Z,6.40
2023-04-03T02:18:36.542Z,6.60
2023-04-03T02:21:03.703Z,6.10
2023-04-03T02:23:30.683Z,6.60
2023-04-03T02:26:13.202Z,7.50
2023-04-03T02:28:42.062Z,6.40
2023-04-03T02:31:11.057Z,6.50
2023-04-03T02:33:40.147Z,6.40
2023-04-03T02:36:09.962Z,6.50
2023-04-03T02:38:38.786Z,6.70
2023-04-03T02:41:10.335Z,6.60
2023-04-03T02:46:06.980Z,6.40
2023-04-03T02:48:34.460Z,6.40
2023-04-03T02:51:02.080Z,6.30
2023-04-03T02:53:29.339Z,7.50
2023-04-03T02:55:56.808Z,6.40
2023-04-03T02:58:23.925Z,6.40
2023-04-03T03:00:52.114Z,6.20
2023-04-03T03:05:46.676Z,6.20
2023-04-03T03:08:13.663Z,6.40
2023-04-03T03:10:40.602Z,6.50
2023-04-03T03:13:08.163Z,6.30
2023-04-03T03:15:35.399Z,6.10
2023-04-03T03:18:04.190Z,6.40
2023-04-03T03:20:31.472Z,6.30
2023-04-03T03:22:59.110Z,6.20
2023-04-03T03:25:26.075Z,6.30
2023-04-03T03:27:53.067Z,6.30
2023-04-03T03:30:20.501Z,6.30
2023-04-03T03:32:47.773Z,6.20
2023-04-03T03:37:42.322Z,6.30
2023-04-03T03:40:10.491Z,6.30
2023-04-03T03:45:06.835Z,6.10
2023-04-03T03:47:34.004Z,6.20
2023-04-03T03:50:01.013Z,6.30
2023-04-03T03:57:23.157Z,6.10
2023-04-03T03:59:51.261Z,6.10
2023-04-03T04:02:19.318Z,6.20
2023-04-03T04:04:46.920Z,6.20
2023-04-03T04:09:42.457Z,6.10
2023-04-03T04:12:10.278Z,6.20
2023-04-03T04:14:38.110Z,6.20
2023-04-03T04:17:07.085Z,6.20
2023-04-03T04:19:34.845Z,6.30
2023-04-03T04:22:02.185Z,6.10
2023-04-03T04:24:30.903Z,6.10
2023-04-03T04:34:22.765Z,6.10
2023-04-03T04:36:49.735Z,7.30
2023-04-03T04:54:19.968Z,6.20
2023-04-03T05:04:16.766Z,6.10
2023-04-03T05:09:17.971Z,6.00
2023-04-03T05:11:47.431Z,6.20
2023-04-03T05:14:16.409Z,6.10
2023-04-03T05:16:43.917Z,6.10
2023-04-03T05:21:39.840Z,6.20
2023-04-03T05:24:11.912Z,6.10
2023-04-03T05:26:41.979Z,6.10
2023-04-03T05:31:37.939Z,6.00
2023-04-03T05:34:06.998Z,6.00
2023-04-03T05:39:08.088Z,6.00
2023-04-03T05:44:05.957Z,5.10
2023-04-03T05:46:33.209Z,6.60
2023-04-03T05:51:37.663Z,6.10
2023-04-03T05:54:27.961Z,5.60
2023-04-03T06:06:58.583Z,5.80
2023-04-03T06:09:29.996Z,5.90
2023-04-03T06:11:59.556Z,5.90
2023-04-03T06:24:26.237Z,6.00
2023-04-03T06:26:54.081Z,5.90
2023-04-03T06:29:22.146Z,5.70
2023-04-03T06:36:46.510Z,5.80
2023-04-03T06:39:17.960Z,5.90
2023-04-03T06:41:45.578Z,5.50
2023-04-03T06:46:41.284Z,5.80
2023-04-03T06:49:08.788Z,5.70
2023-04-03T06:51:36.622Z,6.40
2023-04-03T06:54:05.795Z,6.50
2023-04-03T06:56:33.190Z,4.60
2023-04-03T07:01:29.758Z,5.50
2023-04-03T07:03:57.405Z,5.90
2023-04-03T07:08:55.741Z,5.70
2023-04-03T07:11:23.454Z,5.60
2023-04-03T07:26:10.312Z,6.00
2023-04-03T07:31:09.735Z,5.80
2023-04-03T07:33:38.704Z,5.90
2023-04-03T07:36:08.164Z,5.80
2023-04-03T07:38:38.667Z,6.00
2023-04-03T07:48:31.001Z,6.00
2023-04-03T07:51:02.704Z,5.90
2023-04-03T07:55:59.565Z,6.00
2023-04-03T08:05:50.772Z,5.80
2023-04-03T08:08:22.365Z,5.90
2023-04-03T08:10:51.876Z,5.80
2023-04-03T08:13:19.967Z,5.90
2023-04-03T08:20:43.892Z,6.00
2023-04-03T08:25:43.062Z,5.90
2023-04-03T08:28:12.234Z,6.10
2023-04-03T08:30:43.570Z,6.10
2023-04-03T08:35:43.025Z,6.00
2023-04-03T08:38:11.424Z,6.10
2023-04-03T08:48:36.728Z,6.00
2023-04-03T08:51:18.248Z,6.00
2023-04-03T08:54:02.576Z,6.00
2023-04-03T08:59:06.615Z,6.10
2023-04-03T09:01:40.935Z,6.10
2023-04-03T09:04:15.507Z,6.20
2023-04-03T09:06:51.402Z,6.10
2023-04-03T09:09:38.146Z,6.10
2023-04-03T09:12:22.366Z,6.10
2023-04-03T09:17:59.522Z,6.20
2023-04-03T09:20:40.054Z,6.00
2023-04-03T09:23:51.613Z,6.10
2023-04-03T09:26:31.787Z,6.20
2023-04-03T09:29:07.555Z,6.10
2023-04-03T09:31:42.503Z,6.20
2023-04-03T09:34:34.157Z,6.30
2023-04-03T09:37:07.142Z,6.10
2023-04-03T09:39:52.511Z,5.90
2023-04-03T09:42:25.273Z,6.40
2023-04-03T09:45:05.617Z,6.30
2023-04-03T09:47:38.002Z,6.30
2023-04-03T09:50:14.181Z,5.20
2023-04-03T09:52:48.244Z,6.30
2023-04-03T09:55:30.763Z,6.30
2023-04-03T09:58:04.599Z,6.30
2023-04-03T10:00:38.612Z,6.30
2023-04-03T10:03:34.566Z,6.30
2023-04-03T10:08:34.921Z,6.30
2023-04-03T10:11:16.950Z,6.40
2023-04-03T10:14:02.176Z,6.40
2023-04-03T10:16:55.148Z,6.40
2023-04-03T10:19:42.225Z,6.60
2023-04-03T10:22:21.226Z,6.50
2023-04-03T10:25:24.486Z,6.60
2023-04-03T10:36:16.236Z,6.60
2023-04-03T10:39:23.074Z,6.60
2023-04-03T10:45:20.610Z,7.40
2023-04-03T10:48:01.724Z,6.50
2023-04-03T10:53:54.462Z,6.50
2023-04-03T11:02:09.240Z,6.50
2023-04-03T11:04:40.651Z,6.50
2023-04-03T11:10:01.933Z,6.70
2023-04-03T11:12:50.504Z,6.60
2023-04-03T11:15:20.731Z,6.60
2023-04-03T11:18:04.500Z,6.70
2023-04-03T11:20:38.641Z,6.60
2023-04-03T11:23:30.399Z,6.60
2023-04-03T11:26:19.428Z,6.40
2023-04-03T11:28:47.245Z,6.60
2023-04-03T11:34:41.262Z,7.70
2023-04-03T11:40:16.988Z,7.30
2023-04-03T11:42:49.920Z,6.80
2023-04-03T11:45:23.241Z,6.70
2023-04-03T11:47:59.613Z,6.80
2023-04-03T11:50:41.924Z,6.80
2023-04-03T11:53:14.622Z,6.90
2023-04-03T11:55:50.814Z,7.00
2023-04-03T11:58:27.354Z,7.00
2023-04-03T12:01:03.914Z,6.90
2023-04-03T12:03:48.221Z,6.90
2023-04-03T12:08:57.430Z,6.90
2023-04-03T12:11:43.596Z,6.80
2023-04-03T12:14:17.498Z,6.80
2023-04-03T12:16:48.406Z,6.90
2023-04-03T12:21:57.965Z,7.00
2023-04-03T12:24:31.121Z,7.30
2023-04-03T12:26:58.123Z,7.10
2023-04-03T12:29:34.243Z,7.10
2023-04-03T12:32:37.578Z,7.20
2023-04-03T12:35:37.425Z,7.20
2023-04-03T12:38:35.325Z,7.20
2023-04-03T12:41:53.571Z,7.00
2023-04-03T12:44:37.954Z,7.10
2023-04-03T12:47:25.615Z,7.20
2023-04-03T12:49:54.531Z,7.20
2023-04-03T12:55:19.315Z,7.40
2023-04-03T13:00:40.565Z,7.30
2023-04-03T13:03:26.898Z,7.20
2023-04-03T13:06:01.571Z,7.10
2023-04-03T13:08:29.681Z,7.00
2023-04-03T13:11:03.405Z,7.20
2023-04-03T13:18:33.495Z,7.20
2023-04-03T13:21:07.325Z,7.20
2023-04-03T13:23:37.760Z,7.80
2023-04-03T13:26:06.130Z,7.30
2023-04-03T13:28:34.725Z,7.20
2023-04-03T13:31:24.792Z,7.30
2023-04-03T13:34:12.126Z,7.30
2023-04-03T13:36:43.254Z,7.30
2023-04-03T13:39:16.534Z,6.60
2023-04-03T13:41:50.004Z,7.60
2023-04-03T13:44:24.280Z,7.70
2023-04-03T13:46:57.463Z,7.50
2023-04-03T13:49:28.459Z,7.40
2023-04-03T13:59:37.150Z,7.40
2023-04-03T14:02:04.056Z,7.50
2023-04-03T14:07:01.523Z,7.40
2023-04-03T14:12:06.003Z,7.50
2023-04-03T14:14:36.663Z,7.50
2023-04-03T14:19:55.696Z,8.10
2023-04-03T14:22:30.675Z,7.50
2023-04-03T14:24:58.505Z,7.00
2023-04-03T14:27:40.412Z,7.50
2023-04-03T14:32:39.907Z,7.60
2023-04-03T14:35:07.744Z,8.60
2023-04-03T14:37:36.364Z,7.50
2023-04-03T14:40:07.128Z,7.60
2023-04-03T14:42:37.549Z,7.60
2023-04-03T14:45:10.026Z,7.50
2023-04-03T14:47:48.504Z,7.50
2023-04-03T14:50:22.059Z,7.70
2023-04-03T14:52:52.379Z,5.70
2023-04-03T14:55:22.958Z,7.50
2023-04-03T15:00:21.646Z,7.60
2023-04-03T15:05:17.790Z,7.70
2023-04-03T15:07:55.775Z,7.40
2023-04-03T15:10:28.599Z,7.70
2023-04-03T15:12:56.702Z,7.80
2023-04-03T15:15:25.003Z,7.60
2023-04-03T15:17:55.514Z,7.40
2023-04-03T15:20:27.263Z,8.00
2023-04-03T15:22:57.167Z,7.50
2023-04-03T15:25:26.334Z,7.60
2023-04-03T15:27:58.413Z,7.70
2023-04-03T15:37:49.268Z,7.50
2023-04-03T15:40:16.530Z,7.50
2023-04-03T15:45:11.619Z,7.60
2023-04-03T15:47:38.812Z,7.70
2023-04-03T15:50:08.785Z,7.30
2023-04-03T15:55:04.451Z,7.50
2023-04-03T16:02:28.328Z,7.00
2023-04-03T16:04:56.557Z,8.80
2023-04-03T16:07:23.499Z,7.60
2023-04-03T16:12:18.264Z,7.50
2023-04-03T16:17:12.575Z,8.00
2023-04-03T16:22:07.116Z,7.50
2023-04-03T16:27:01.610Z,7.60
2023-04-03T16:29:28.718Z,7.50
2023-04-03T16:31:57.561Z,7.50
2023-04-03T16:34:26.564Z,7.50
2023-04-03T16:41:48.849Z,7.50
2023-04-03T16:46:43.493Z,7.20
2023-04-03T16:54:07.467Z,6.90
2023-04-03T17:08:53.193Z,7.30
2023-04-03T17:16:25.710Z,7.20
2023-04-03T17:18:54.130Z,8.40
2023-04-03T17:23:58.743Z,7.00
2023-04-03T17:26:27.506Z,7.20
2023-04-03T17:28:54.831Z,7.20
2023-04-03T17:33:51.546Z,7.30
2023-04-03T17:36:18.610Z,7.20
2023-04-03T17:38:45.997Z,7.30
2023-04-03T17:43:40.391Z,7.20
2023-04-03T17:46:11.536Z,7.10
2023-04-03T17:48:41.481Z,6.60
2023-04-03T17:51:13.049Z,7.10
2023-04-03T17:53:40.865Z,7.20
2023-04-03T17:56:24.180Z,7.00
2023-04-03T17:58:51.939Z,7.10
2023-04-03T18:01:26.705Z,7.00
2023-04-03T18:03:58.673Z,7.10
2023-04-03T18:06:33.825Z,7.90
2023-04-03T18:09:09.575Z,7.00
2023-04-03T18:11:37.211Z,7.00
2023-04-03T18:14:07.858Z,7.60
2023-04-03T18:21:51.214Z,6.90
2023-04-03T18:24:20.677Z,7.60
2023-04-03T18:26:53.974Z,6.90
2023-04-03T18:29:21.738Z,6.60
2023-04-03T18:31:52.757Z,5.80
2023-04-03T18:34:19.915Z,6.70
2023-04-03T18:36:47.693Z,8.00
2023-04-03T18:41:43.320Z,6.90
2023-04-03T18:44:16.070Z,6.70
2023-04-03T18:46:43.348Z,6.80
2023-04-03T18:49:12.491Z,6.80
2023-04-03T18:54:09.907Z,6.70
2023-04-03T18:56:37.877Z,6.70
2023-04-03T18:59:08.135Z,6.80
2023-04-03T19:01:35.856Z,6.80
2023-04-03T19:04:03.472Z,6.70
2023-04-03T19:06:30.587Z,6.70
2023-04-03T19:14:10.642Z,6.40
2023-04-03T19:19:07.542Z,6.60
2023-04-03T19:21:38.391Z,6.60
2023-04-03T19:26:33.501Z,6.60
2023-04-03T19:29:00.635Z,5.90
2023-04-03T19:31:28.347Z,6.70
2023-04-03T19:38:50.897Z,6.50
2023-04-03T19:41:22.812Z,5.20
2023-04-03T19:43:52.821Z,6.50
2023-04-03T19:46:26.624Z,6.40
2023-04-03T19:48:54.120Z,6.40
2023-04-03T19:51:21.325Z,6.40
2023-04-03T19:53:48.572Z,6.40
2023-04-03T19:58:43.997Z,6.40
2023-04-03T20:11:03.933Z,6.50
2023-04-03T20:13:30.976Z,6.30
2023-04-03T20:18:28.905Z,6.10
2023-04-03T20:20:59.893Z,6.20
2023-04-03T20:23:28.071Z,6.10
2023-04-03T20:28:37.767Z,6.10
2023-04-03T20:31:04.822Z,5.90
2023-04-03T20:33:32.034Z,6.00
2023-04-03T20:35:59.533Z,6.00
2023-04-03T20:40:53.975Z,6.10
2023-04-03T20:43:23.125Z,6.00
2023-04-03T20:45:50.890Z,6.10
2023-04-03T20:48:18.709Z,7.00
2023-04-03T20:50:46.502Z,6.10
2023-04-03T20:53:14.912Z,6.00
2023-04-03T21:00:38.401Z,5.90
2023-04-03T21:03:06.004Z,5.80
2023-04-03T21:05:37.456Z,5.80
2023-04-03T21:09:01.257Z,5.20
2023-04-03T21:12:24.964Z,6.20
2023-04-03T21:15:49.074Z,6.50
2023-04-03T21:18:24.714Z,5.80
2023-04-03T21:20:52.818Z,5.90
2023-04-03T21:23:20.450Z,5.80
2023-04-03T21:25:48.899Z,5.90
2023-04-03T21:30:44.499Z,5.70
2023-04-03T21:38:09.087Z,6.40
2023-04-03T21:40:36.201Z,5.60
2023-04-03T21:43:05.081Z,5.90
2023-04-03T21:45:32.313Z,5.70
2023-04-03T21:48:00.289Z,5.60
2023-04-03T21:57:53.745Z,5.60
2023-04-03T22:00:21.643Z,5.60
2023-04-03T22:05:20.262Z,5.50
2023-04-03T22:07:48.516Z,5.40
2023-04-03T22:17:39.551Z,5.80
2023-04-03T22:20:07.903Z,5.40
2023-04-03T22:25:05.869Z,5.40
2023-04-03T22:34:55.532Z,5.80
2023-04-03T22:37:22.554Z,5.30
2023-04-03T22:44:44.759Z,5.30
2023-04-03T22:47:11.768Z,5.30
2023-04-03T22:49:39.282Z,5.30
2023-04-03T22:52:06.294Z,5.20
2023-04-03T23:06:51.621Z,5.10
2023-04-03T23:11:46.035Z,5.30
2023-04-03T23:19:09.452Z,5.00
2023-04-03T23:21:36.441Z,5.10
2023-04-03T23:33:55.424Z,5.10
2023-04-03T23:41:17.249Z,5.00
2023-04-03T23:46:13.475Z,4.80
2023-04-03T23:53:35.318Z,4.50
2023-04-03T23:56:02.225Z,4.80
2023-04-03T23:58:29.161Z,4.90
